sensor_id;sensor_type;location;lat;lon;timestamp;P1;durP1;ratioP1;P2;durP2;ratioP2
16352;SDS011;8286;51.274;9.542;2023-02-28T00:01:13;3.63;;;2.80;;
16352;SDS011;8286;51.274;9.542;2023-02-28T00:03:40;4.03;;;2.67;;
16352;SDS011;8286;51.274;9.542;2023-02-28T00:06:07;2.40;;;2.20;;
16352;SDS011;8286;51.274;9.542;2023-02-28T00:08:34;1.90;;;1.80;;
16352;SDS011;8286;51.274;9.542;2023-02-28T00:11:03;4.00;;;1.60;;
16352;SDS011;8286;51.274;9.542;2023-02-28T00:13:30;1.50;;;1.40;;
16352;SDS011;8286;51.274;9.542;2023-02-28T00:16:01;1.50;;;1.40;;
16352;SDS011;8286;51.274;9.542;2023-02-28T00:18:29;1.70;;;1.60;;
16352;SDS011;8286;51.274;9.542;2023-02-28T00:20:55;1.83;;;1.73;;
16352;SDS011;8286;51.274;9.542;2023-02-28T00:23:22;2.17;;;2.07;;
16352;SDS011;8286;51.274;9.542;2023-02-28T00:25:48;3.17;;;1.80;;
16352;SDS011;8286;51.274;9.542;2023-02-28T00:28:16;1.80;;;1.70;;
16352;SDS011;8286;51.274;9.542;2023-02-28T00:30:43;2.13;;;1.60;;
16352;SDS011;8286;51.274;9.542;2023-02-28T00:33:09;1.97;;;1.50;;
16352;SDS011;8286;51.274;9.542;2023-02-28T00:35:36;3.30;;;1.40;;
16352;SDS011;8286;51.274;9.542;2023-02-28T00:38:02;1.83;;;1.50;;
16352;SDS011;8286;51.274;9.542;2023-02-28T00:40:29;2.37;;;1.53;;
16352;SDS011;8286;51.274;9.542;2023-02-28T00:42:56;3.87;;;1.80;;
16352;SDS011;8286;51.274;9.542;2023-02-28T00:45:23;1.90;;;1.50;;
16352;SDS011;8286;51.274;9.542;2023-02-28T00:47:50;2.73;;;1.30;;
16352;SDS011;8286;51.274;9.542;2023-02-28T00:50:17;1.73;;;1.63;;
16352;SDS011;8286;51.274;9.542;2023-02-28T00:52:45;2.00;;;1.83;;
16352;SDS011;8286;51.274;9.542;2023-02-28T00:55:11;1.90;;;1.77;;
16352;SDS011;8286;51.274;9.542;2023-02-28T00:57:38;2.20;;;1.50;;
16352;SDS011;8286;51.274;9.542;2023-02-28T01:00:05;1.70;;;1.60;;
16352;SDS011;8286;51.274;9.542;2023-02-28T01:02:34;4.30;;;1.70;;
16352;SDS011;8286;51.274;9.542;2023-02-28T01:05:00;2.13;;;1.93;;
16352;SDS011;8286;51.274;9.542;2023-02-28T01:07:27;1.83;;;1.73;;
16352;SDS011;8286;51.274;9.542;2023-02-28T01:09:53;2.07;;;1.70;;
16352;SDS011;8286;51.274;9.542;2023-02-28T01:12:20;1.50;;;1.40;;
16352;SDS011;8286;51.274;9.542;2023-02-28T01:14:47;3.13;;;1.87;;
16352;SDS011;8286;51.274;9.542;2023-02-28T01:17:13;1.50;;;1.40;;
16352;SDS011;8286;51.274;9.542;2023-02-28T01:19:41;1.70;;;1.30;;
16352;SDS011;8286;51.274;9.542;2023-02-28T01:22:07;3.37;;;1.70;;
16352;SDS011;8286;51.274;9.542;2023-02-28T01:24:34;1.40;;;1.30;;
16352;SDS011;8286;51.274;9.542;2023-02-28T01:27:00;2.00;;;1.23;;
16352;SDS011;8286;51.274;9.542;2023-02-28T01:29:27;2.30;;;1.77;;
16352;SDS011;8286;51.274;9.542;2023-02-28T01:31:53;1.87;;;1.40;;
16352;SDS011;8286;51.274;9.542;2023-02-28T01:34:20;2.20;;;1.60;;
16352;SDS011;8286;51.274;9.542;2023-02-28T01:36:48;1.77;;;1.63;;
16352;SDS011;8286;51.274;9.542;2023-02-28T01:39:14;2.60;;;1.90;;
16352;SDS011;8286;51.274;9.542;2023-02-28T01:41:41;1.70;;;1.60;;
16352;SDS011;8286;51.274;9.542;2023-02-28T01:47:08;2.37;;;1.20;;
16352;SDS011;8286;51.274;9.542;2023-02-28T01:49:34;1.87;;;1.70;;
16352;SDS011;8286;51.274;9.542;2023-02-28T01:52:02;2.37;;;1.53;;
16352;SDS011;8286;51.274;9.542;2023-02-28T01:54:29;2.17;;;1.40;;
16352;SDS011;8286;51.274;9.542;2023-02-28T01:56:58;1.27;;;1.17;;
16352;SDS011;8286;51.274;9.542;2023-02-28T01:59:27;3.40;;;1.60;;
16352;SDS011;8286;51.274;9.542;2023-02-28T02:01:58;2.50;;;1.70;;
16352;SDS011;8286;51.274;9.542;2023-02-28T02:04:25;4.20;;;1.53;;
16352;SDS011;8286;51.274;9.542;2023-02-28T02:06:56;1.20;;;1.20;;
16352;SDS011;8286;51.274;9.542;2023-02-28T02:09:26;1.33;;;1.23;;
16352;SDS011;8286;51.274;9.542;2023-02-28T02:11:52;1.30;;;1.20;;
16352;SDS011;8286;51.274;9.542;2023-02-28T02:14:31;2.87;;;1.33;;
16352;SDS011;8286;51.274;9.542;2023-02-28T02:17:07;2.20;;;1.40;;
16352;SDS011;8286;51.274;9.542;2023-02-28T02:20:01;1.27;;;1.17;;
16352;SDS011;8286;51.274;9.542;2023-02-28T02:22:48;1.30;;;1.20;;
16352;SDS011;8286;51.274;9.542;2023-02-28T02:25:29;1.20;;;1.10;;
16352;SDS011;8286;51.274;9.542;2023-02-28T02:31:06;1.80;;;1.27;;
16352;SDS011;8286;51.274;9.542;2023-02-28T02:34:00;1.10;;;1.10;;
16352;SDS011;8286;51.274;9.542;2023-02-28T02:36:47;2.77;;;1.83;;
16352;SDS011;8286;51.274;9.542;2023-02-28T02:39:17;2.50;;;1.60;;
16352;SDS011;8286;51.274;9.542;2023-02-28T02:41:49;1.53;;;1.43;;
16352;SDS011;8286;51.274;9.542;2023-02-28T02:44:18;2.27;;;1.73;;
16352;SDS011;8286;51.274;9.542;2023-02-28T02:46:47;1.63;;;1.53;;
16352;SDS011;8286;51.274;9.542;2023-02-28T02:49:18;1.60;;;1.50;;
16352;SDS011;8286;51.274;9.542;2023-02-28T02:51:47;1.63;;;1.53;;
16352;SDS011;8286;51.274;9.542;2023-02-28T02:54:15;2.00;;;1.57;;
16352;SDS011;8286;51.274;9.542;2023-02-28T02:56:44;2.40;;;1.60;;
16352;SDS011;8286;51.274;9.542;2023-02-28T02:59:13;2.63;;;1.67;;
16352;SDS011;8286;51.274;9.542;2023-02-28T03:01:46;3.03;;;1.73;;
16352;SDS011;8286;51.274;9.542;2023-02-28T03:04:15;1.80;;;1.70;;
16352;SDS011;8286;51.274;9.542;2023-02-28T03:06:45;1.80;;;1.60;;
16352;SDS011;8286;51.274;9.542;2023-02-28T03:09:12;5.43;;;3.00;;
16352;SDS011;8286;51.274;9.542;2023-02-28T03:11:38;3.60;;;2.07;;
16352;SDS011;8286;51.274;9.542;2023-02-28T03:17:01;2.27;;;2.07;;
16352;SDS011;8286;51.274;9.542;2023-02-28T03:19:49;1.80;;;1.67;;
16352;SDS011;8286;51.274;9.542;2023-02-28T03:22:30;2.93;;;2.17;;
16352;SDS011;8286;51.274;9.542;2023-02-28T03:25:04;3.07;;;1.83;;
16352;SDS011;8286;51.274;9.542;2023-02-28T03:27:35;2.03;;;1.83;;
16352;SDS011;8286;51.274;9.542;2023-02-28T03:30:05;2.13;;;1.93;;
16352;SDS011;8286;51.274;9.542;2023-02-28T03:32:36;2.60;;;2.40;;
16352;SDS011;8286;51.274;9.542;2023-02-28T03:35:08;5.27;;;2.33;;
16352;SDS011;8286;51.274;9.542;2023-02-28T03:37:38;5.20;;;2.20;;
16352;SDS011;8286;51.274;9.542;2023-02-28T03:40:07;3.73;;;2.27;;
16352;SDS011;8286;51.274;9.542;2023-02-28T03:42:37;2.53;;;2.30;;
16352;SDS011;8286;51.274;9.542;2023-02-28T03:45:08;3.03;;;2.20;;
16352;SDS011;8286;51.274;9.542;2023-02-28T03:47:38;2.30;;;1.83;;
16352;SDS011;8286;51.274;9.542;2023-02-28T03:50:10;2.40;;;2.20;;
16352;SDS011;8286;51.274;9.542;2023-02-28T03:52:38;5.27;;;2.10;;
16352;SDS011;8286;51.274;9.542;2023-02-28T03:55:07;2.30;;;2.10;;
16352;SDS011;8286;51.274;9.542;2023-02-28T03:57:37;2.57;;;2.37;;
16352;SDS011;8286;51.274;9.542;2023-02-28T04:00:07;4.43;;;2.87;;
16352;SDS011;8286;51.274;9.542;2023-02-28T04:02:37;2.30;;;2.10;;
16352;SDS011;8286;51.274;9.542;2023-02-28T04:05:04;2.60;;;2.40;;
16352;SDS011;8286;51.274;9.542;2023-02-28T04:07:32;3.43;;;2.20;;
16352;SDS011;8286;51.274;9.542;2023-02-28T04:09:59;2.87;;;2.33;;
16352;SDS011;8286;51.274;9.542;2023-02-28T04:12:26;4.07;;;2.10;;
16352;SDS011;8286;51.274;9.542;2023-02-28T04:14:52;6.20;;;2.13;;
16352;SDS011;8286;51.274;9.542;2023-02-28T04:17:19;2.70;;;2.10;;
16352;SDS011;8286;51.274;9.542;2023-02-28T04:19:45;2.47;;;2.00;;
16352;SDS011;8286;51.274;9.542;2023-02-28T04:22:12;5.43;;;2.40;;
16352;SDS011;8286;51.274;9.542;2023-02-28T04:24:40;2.87;;;2.30;;
16352;SDS011;8286;51.274;9.542;2023-02-28T04:27:07;2.30;;;2.10;;
16352;SDS011;8286;51.274;9.542;2023-02-28T04:29:35;2.80;;;2.50;;
16352;SDS011;8286;51.274;9.542;2023-02-28T04:32:01;2.60;;;1.90;;
16352;SDS011;8286;51.274;9.542;2023-02-28T04:34:29;2.10;;;1.63;;
16352;SDS011;8286;51.274;9.542;2023-02-28T04:36:57;1.50;;;1.40;;
16352;SDS011;8286;51.274;9.542;2023-02-28T04:39:25;2.27;;;1.70;;
16352;SDS011;8286;51.274;9.542;2023-02-28T04:41:53;1.60;;;1.50;;
16352;SDS011;8286;51.274;9.542;2023-02-28T04:44:19;2.07;;;1.87;;
16352;SDS011;8286;51.274;9.542;2023-02-28T04:46:47;3.43;;;1.67;;
16352;SDS011;8286;51.274;9.542;2023-02-28T04:49:14;3.63;;;1.70;;
16352;SDS011;8286;51.274;9.542;2023-02-28T04:51:41;1.50;;;1.40;;
16352;SDS011;8286;51.274;9.542;2023-02-28T04:54:08;1.70;;;1.60;;
16352;SDS011;8286;51.274;9.542;2023-02-28T04:56:35;4.10;;;1.57;;
16352;SDS011;8286;51.274;9.542;2023-02-28T04:59:02;2.93;;;1.70;;
16352;SDS011;8286;51.274;9.542;2023-02-28T05:01:30;1.53;;;1.43;;
16352;SDS011;8286;51.274;9.542;2023-02-28T05:03:58;1.80;;;1.70;;
16352;SDS011;8286;51.274;9.542;2023-02-28T05:06:26;1.77;;;1.50;;
16352;SDS011;8286;51.274;9.542;2023-02-28T05:08:54;1.83;;;1.60;;
16352;SDS011;8286;51.274;9.542;2023-02-28T05:11:23;2.87;;;1.60;;
16352;SDS011;8286;51.274;9.542;2023-02-28T05:13:51;2.00;;;1.60;;
16352;SDS011;8286;51.274;9.542;2023-02-28T05:16:20;3.83;;;2.40;;
16352;SDS011;8286;51.274;9.542;2023-02-28T05:18:46;4.60;;;2.40;;
16352;SDS011;8286;51.274;9.542;2023-02-28T05:21:24;3.00;;;1.90;;
16352;SDS011;8286;51.274;9.542;2023-02-28T05:23:52;2.10;;;1.53;;
16352;SDS011;8286;51.274;9.542;2023-02-28T05:26:19;4.27;;;2.30;;
16352;SDS011;8286;51.274;9.542;2023-02-28T05:28:45;2.33;;;2.13;;
16352;SDS011;8286;51.274;9.542;2023-02-28T05:31:12;2.83;;;2.13;;
16352;SDS011;8286;51.274;9.542;2023-02-28T05:33:40;4.53;;;2.57;;
16352;SDS011;8286;51.274;9.542;2023-02-28T05:36:07;4.37;;;2.93;;
16352;SDS011;8286;51.274;9.542;2023-02-28T05:38:34;6.67;;;2.67;;
16352;SDS011;8286;51.274;9.542;2023-02-28T05:41:04;3.73;;;2.33;;
16352;SDS011;8286;51.274;9.542;2023-02-28T05:43:31;3.83;;;2.07;;
16352;SDS011;8286;51.274;9.542;2023-02-28T05:45:58;2.27;;;1.90;;
16352;SDS011;8286;51.274;9.542;2023-02-28T05:48:24;1.83;;;1.70;;
16352;SDS011;8286;51.274;9.542;2023-02-28T05:50:53;2.70;;;2.00;;
16352;SDS011;8286;51.274;9.542;2023-02-28T05:53:19;3.73;;;1.90;;
16352;SDS011;8286;51.274;9.542;2023-02-28T05:55:46;2.23;;;2.00;;
16352;SDS011;8286;51.274;9.542;2023-02-28T05:58:13;2.27;;;2.10;;
16352;SDS011;8286;51.274;9.542;2023-02-28T06:00:39;2.00;;;1.80;;
16352;SDS011;8286;51.274;9.542;2023-02-28T06:03:06;1.57;;;1.47;;
16352;SDS011;8286;51.274;9.542;2023-02-28T06:05:32;1.60;;;1.50;;
16352;SDS011;8286;51.274;9.542;2023-02-28T06:08:00;1.87;;;1.50;;
16352;SDS011;8286;51.274;9.542;2023-02-28T06:10:27;1.70;;;1.43;;
16352;SDS011;8286;51.274;9.542;2023-02-28T06:12:53;2.40;;;1.60;;
16352;SDS011;8286;51.274;9.542;2023-02-28T06:15:20;2.50;;;1.60;;
16352;SDS011;8286;51.274;9.542;2023-02-28T06:17:46;3.37;;;1.77;;
16352;SDS011;8286;51.274;9.542;2023-02-28T06:20:13;1.77;;;1.67;;
16352;SDS011;8286;51.274;9.542;2023-02-28T06:22:39;1.97;;;1.80;;
16352;SDS011;8286;51.274;9.542;2023-02-28T06:25:09;7.73;;;1.80;;
16352;SDS011;8286;51.274;9.542;2023-02-28T06:27:36;2.20;;;1.60;;
16352;SDS011;8286;51.274;9.542;2023-02-28T06:30:02;2.80;;;1.80;;
16352;SDS011;8286;51.274;9.542;2023-02-28T06:32:29;2.03;;;1.80;;
16352;SDS011;8286;51.274;9.542;2023-02-28T06:34:56;3.50;;;2.70;;
16352;SDS011;8286;51.274;9.542;2023-02-28T06:37:23;3.17;;;2.33;;
16352;SDS011;8286;51.274;9.542;2023-02-28T06:39:51;4.13;;;2.20;;
16352;SDS011;8286;51.274;9.542;2023-02-28T06:42:19;3.13;;;2.13;;
16352;SDS011;8286;51.274;9.542;2023-02-28T06:44:47;2.30;;;2.13;;
16352;SDS011;8286;51.274;9.542;2023-02-28T06:47:13;5.20;;;2.23;;
16352;SDS011;8286;51.274;9.542;2023-02-28T06:49:40;2.07;;;1.90;;
16352;SDS011;8286;51.274;9.542;2023-02-28T06:52:06;4.30;;;2.30;;
16352;SDS011;8286;51.274;9.542;2023-02-28T06:54:33;2.20;;;1.97;;
16352;SDS011;8286;51.274;9.542;2023-02-28T06:57:00;3.00;;;2.73;;
16352;SDS011;8286;51.274;9.542;2023-02-28T06:59:28;2.60;;;2.40;;
16352;SDS011;8286;51.274;9.542;2023-02-28T07:01:54;2.47;;;2.10;;
16352;SDS011;8286;51.274;9.542;2023-02-28T07:04:21;2.70;;;2.27;;
16352;SDS011;8286;51.274;9.542;2023-02-28T07:06:47;3.03;;;2.10;;
16352;SDS011;8286;51.274;9.542;2023-02-28T07:09:14;2.83;;;2.57;;
16352;SDS011;8286;51.274;9.542;2023-02-28T07:11:41;2.83;;;2.33;;
16352;SDS011;8286;51.274;9.542;2023-02-28T07:14:08;5.17;;;3.50;;
16352;SDS011;8286;51.274;9.542;2023-02-28T07:16:36;5.43;;;3.23;;
16352;SDS011;8286;51.274;9.542;2023-02-28T07:19:03;3.40;;;2.67;;
16352;SDS011;8286;51.274;9.542;2023-02-28T07:21:29;4.63;;;2.43;;
16352;SDS011;8286;51.274;9.542;2023-02-28T07:23:56;3.77;;;2.40;;
16352;SDS011;8286;51.274;9.542;2023-02-28T07:26:22;8.17;;;2.33;;
16352;SDS011;8286;51.274;9.542;2023-02-28T07:28:49;2.20;;;2.00;;
16352;SDS011;8286;51.274;9.542;2023-02-28T07:31:16;3.17;;;2.30;;
16352;SDS011;8286;51.274;9.542;2023-02-28T07:33:44;3.43;;;2.20;;
16352;SDS011;8286;51.274;9.542;2023-02-28T07:36:12;3.40;;;1.90;;
16352;SDS011;8286;51.274;9.542;2023-02-28T07:38:43;3.37;;;2.40;;
16352;SDS011;8286;51.274;9.542;2023-02-28T07:41:12;2.60;;;2.20;;
16352;SDS011;8286;51.274;9.542;2023-02-28T07:43:38;2.67;;;2.10;;
16352;SDS011;8286;51.274;9.542;2023-02-28T07:46:06;2.10;;;1.90;;
16352;SDS011;8286;51.274;9.542;2023-02-28T07:48:33;5.07;;;2.27;;
16352;SDS011;8286;51.274;9.542;2023-02-28T07:51:01;2.07;;;1.87;;
16352;SDS011;8286;51.274;9.542;2023-02-28T07:53:28;3.27;;;1.67;;
16352;SDS011;8286;51.274;9.542;2023-02-28T07:55:55;4.23;;;1.63;;
16352;SDS011;8286;51.274;9.542;2023-02-28T07:58:22;1.67;;;1.57;;
16352;SDS011;8286;51.274;9.542;2023-02-28T08:00:49;3.80;;;1.83;;
16352;SDS011;8286;51.274;9.542;2023-02-28T08:03:16;3.10;;;1.73;;
16352;SDS011;8286;51.274;9.542;2023-02-28T08:05:42;3.53;;;1.63;;
16352;SDS011;8286;51.274;9.542;2023-02-28T08:08:10;1.57;;;1.47;;
16352;SDS011;8286;51.274;9.542;2023-02-28T08:10:37;1.87;;;1.60;;
16352;SDS011;8286;51.274;9.542;2023-02-28T08:13:03;2.20;;;1.77;;
16352;SDS011;8286;51.274;9.542;2023-02-28T08:15:30;1.80;;;1.70;;
16352;SDS011;8286;51.274;9.542;2023-02-28T08:17:56;2.93;;;1.90;;
16352;SDS011;8286;51.274;9.542;2023-02-28T08:20:23;1.97;;;1.67;;
16352;SDS011;8286;51.274;9.542;2023-02-28T08:22:50;2.17;;;1.87;;
16352;SDS011;8286;51.274;9.542;2023-02-28T08:25:18;2.23;;;1.90;;
16352;SDS011;8286;51.274;9.542;2023-02-28T08:27:44;4.43;;;2.57;;
16352;SDS011;8286;51.274;9.542;2023-02-28T08:30:11;4.70;;;1.80;;
16352;SDS011;8286;51.274;9.542;2023-02-28T08:32:39;1.93;;;1.83;;
16352;SDS011;8286;51.274;9.542;2023-02-28T08:35:06;4.53;;;2.17;;
16352;SDS011;8286;51.274;9.542;2023-02-28T08:37:34;2.30;;;2.10;;
16352;SDS011;8286;51.274;9.542;2023-02-28T08:40:00;2.00;;;1.80;;
16352;SDS011;8286;51.274;9.542;2023-02-28T08:42:30;2.53;;;2.20;;
16352;SDS011;8286;51.274;9.542;2023-02-28T08:44:58;2.53;;;1.97;;
16352;SDS011;8286;51.274;9.542;2023-02-28T08:47:24;2.50;;;2.10;;
16352;SDS011;8286;51.274;9.542;2023-02-28T08:49:51;2.73;;;2.13;;
16352;SDS011;8286;51.274;9.542;2023-02-28T08:52:17;1.97;;;1.87;;
16352;SDS011;8286;51.274;9.542;2023-02-28T08:54:44;4.57;;;2.17;;
16352;SDS011;8286;51.274;9.542;2023-02-28T08:57:10;3.30;;;2.30;;
16352;SDS011;8286;51.274;9.542;2023-02-28T08:59:38;3.97;;;2.20;;
16352;SDS011;8286;51.274;9.542;2023-02-28T09:02:05;5.60;;;2.10;;
16352;SDS011;8286;51.274;9.542;2023-02-28T09:04:33;3.50;;;2.20;;
16352;SDS011;8286;51.274;9.542;2023-02-28T09:06:59;3.50;;;2.40;;
16352;SDS011;8286;51.274;9.542;2023-02-28T09:09:26;1.73;;;1.63;;
16352;SDS011;8286;51.274;9.542;2023-02-28T09:11:52;2.50;;;2.30;;
16352;SDS011;8286;51.274;9.542;2023-02-28T09:14:21;2.40;;;2.10;;
16352;SDS011;8286;51.274;9.542;2023-02-28T09:16:49;4.27;;;2.60;;
16352;SDS011;8286;51.274;9.542;2023-02-28T09:19:15;3.33;;;2.27;;
16352;SDS011;8286;51.274;9.542;2023-02-28T09:21:42;4.13;;;2.70;;
16352;SDS011;8286;51.274;9.542;2023-02-28T09:24:08;4.73;;;2.50;;
16352;SDS011;8286;51.274;9.542;2023-02-28T09:26:36;6.03;;;1.90;;
16352;SDS011;8286;51.274;9.542;2023-02-28T09:29:03;2.33;;;2.00;;
16352;SDS011;8286;51.274;9.542;2023-02-28T09:31:30;4.73;;;2.40;;
16352;SDS011;8286;51.274;9.542;2023-02-28T09:33:58;4.13;;;2.20;;
16352;SDS011;8286;51.274;9.542;2023-02-28T09:36:25;2.53;;;1.83;;
16352;SDS011;8286;51.274;9.542;2023-02-28T09:38:53;2.17;;;1.93;;
16352;SDS011;8286;51.274;9.542;2023-02-28T09:41:20;2.23;;;2.07;;
16352;SDS011;8286;51.274;9.542;2023-02-28T09:43:49;3.07;;;2.57;;
16352;SDS011;8286;51.274;9.542;2023-02-28T09:46:21;2.20;;;2.00;;
16352;SDS011;8286;51.274;9.542;2023-02-28T09:48:53;2.03;;;1.93;;
16352;SDS011;8286;51.274;9.542;2023-02-28T09:51:27;2.00;;;1.90;;
16352;SDS011;8286;51.274;9.542;2023-02-28T09:54:04;2.07;;;1.90;;
16352;SDS011;8286;51.274;9.542;2023-02-28T09:56:32;7.80;;;2.40;;
16352;SDS011;8286;51.274;9.542;2023-02-28T09:59:02;2.67;;;2.17;;
16352;SDS011;8286;51.274;9.542;2023-02-28T10:01:34;2.23;;;2.00;;
16352;SDS011;8286;51.274;9.542;2023-02-28T10:04:03;2.73;;;2.23;;
16352;SDS011;8286;51.274;9.542;2023-02-28T10:06:36;1.70;;;1.60;;
16352;SDS011;8286;51.274;9.542;2023-02-28T10:09:08;2.07;;;1.87;;
16352;SDS011;8286;51.274;9.542;2023-02-28T10:11:38;2.30;;;2.10;;
16352;SDS011;8286;51.274;9.542;2023-02-28T10:14:06;2.10;;;2.00;;
16352;SDS011;8286;51.274;9.542;2023-02-28T10:16:40;2.20;;;1.90;;
16352;SDS011;8286;51.274;9.542;2023-02-28T10:19:12;2.00;;;1.90;;
16352;SDS011;8286;51.274;9.542;2023-02-28T10:21:43;1.90;;;1.80;;
16352;SDS011;8286;51.274;9.542;2023-02-28T10:24:15;1.80;;;1.70;;
16352;SDS011;8286;51.274;9.542;2023-02-28T10:26:46;2.97;;;2.03;;
16352;SDS011;8286;51.274;9.542;2023-02-28T10:29:13;2.73;;;1.80;;
16352;SDS011;8286;51.274;9.542;2023-02-28T10:31:40;10.00;;;2.50;;
16352;SDS011;8286;51.274;9.542;2023-02-28T10:34:07;2.13;;;1.90;;
16352;SDS011;8286;51.274;9.542;2023-02-28T10:36:34;4.40;;;2.30;;
16352;SDS011;8286;51.274;9.542;2023-02-28T10:39:01;3.20;;;1.90;;
16352;SDS011;8286;51.274;9.542;2023-02-28T10:42:00;2.30;;;2.13;;
16352;SDS011;8286;51.274;9.542;2023-02-28T10:44:26;2.00;;;1.90;;
16352;SDS011;8286;51.274;9.542;2023-02-28T10:46:52;2.20;;;2.10;;
16352;SDS011;8286;51.274;9.542;2023-02-28T10:49:20;1.90;;;1.80;;
16352;SDS011;8286;51.274;9.542;2023-02-28T10:51:48;2.70;;;1.87;;
16352;SDS011;8286;51.274;9.542;2023-02-28T10:54:28;2.37;;;2.00;;
16352;SDS011;8286;51.274;9.542;2023-02-28T10:57:14;2.23;;;2.10;;
16352;SDS011;8286;51.274;9.542;2023-02-28T10:59:43;2.07;;;1.97;;
16352;SDS011;8286;51.274;9.542;2023-02-28T11:02:28;2.20;;;2.10;;
16352;SDS011;8286;51.274;9.542;2023-02-28T11:04:57;2.23;;;2.00;;
16352;SDS011;8286;51.274;9.542;2023-02-28T11:07:24;3.10;;;2.10;;
16352;SDS011;8286;51.274;9.542;2023-02-28T11:09:54;2.53;;;2.33;;
16352;SDS011;8286;51.274;9.542;2023-02-28T11:12:22;2.23;;;2.10;;
16352;SDS011;8286;51.274;9.542;2023-02-28T11:14:50;2.20;;;2.07;;
16352;SDS011;8286;51.274;9.542;2023-02-28T11:17:19;2.33;;;2.13;;
16352;SDS011;8286;51.274;9.542;2023-02-28T11:19:48;2.30;;;2.10;;
16352;SDS011;8286;51.274;9.542;2023-02-28T11:22:17;2.63;;;2.30;;
16352;SDS011;8286;51.274;9.542;2023-02-28T11:24:45;3.63;;;2.40;;
16352;SDS011;8286;51.274;9.542;2023-02-28T11:27:25;2.33;;;2.13;;
16352;SDS011;8286;51.274;9.542;2023-02-28T11:30:11;9.63;;;2.90;;
16352;SDS011;8286;51.274;9.542;2023-02-28T11:32:50;2.60;;;2.37;;
16352;SDS011;8286;51.274;9.542;2023-02-28T11:35:17;8.17;;;3.03;;
16352;SDS011;8286;51.274;9.542;2023-02-28T11:37:47;4.43;;;2.30;;
16352;SDS011;8286;51.274;9.542;2023-02-28T11:40:15;2.80;;;2.60;;
16352;SDS011;8286;51.274;9.542;2023-02-28T11:42:46;2.33;;;2.13;;
16352;SDS011;8286;51.274;9.542;2023-02-28T11:45:28;3.60;;;2.23;;
16352;SDS011;8286;51.274;9.542;2023-02-28T11:48:12;2.70;;;2.27;;
16352;SDS011;8286;51.274;9.542;2023-02-28T11:50:49;3.43;;;2.43;;
16352;SDS011;8286;51.274;9.542;2023-02-28T11:53:24;2.87;;;2.07;;
16352;SDS011;8286;51.274;9.542;2023-02-28T11:56:02;2.47;;;2.27;;
16352;SDS011;8286;51.274;9.542;2023-02-28T11:58:36;2.43;;;2.23;;
16352;SDS011;8286;51.274;9.542;2023-02-28T12:01:09;3.73;;;2.40;;
16352;SDS011;8286;51.274;9.542;2023-02-28T12:03:43;3.40;;;2.40;;
16352;SDS011;8286;51.274;9.542;2023-02-28T12:06:15;2.83;;;2.63;;
16352;SDS011;8286;51.274;9.542;2023-02-28T12:08:47;2.33;;;2.10;;
16352;SDS011;8286;51.274;9.542;2023-02-28T12:11:19;4.87;;;2.20;;
16352;SDS011;8286;51.274;9.542;2023-02-28T12:13:58;2.00;;;1.90;;
16352;SDS011;8286;51.274;9.542;2023-02-28T12:16:37;3.73;;;2.37;;
16352;SDS011;8286;51.274;9.542;2023-02-28T12:19:18;2.73;;;2.40;;
16352;SDS011;8286;51.274;9.542;2023-02-28T12:21:49;3.30;;;2.40;;
16352;SDS011;8286;51.274;9.542;2023-02-28T12:24:28;3.97;;;2.27;;
16352;SDS011;8286;51.274;9.542;2023-02-28T12:27:03;2.87;;;2.20;;
16352;SDS011;8286;51.274;9.542;2023-02-28T12:29:34;3.10;;;2.30;;
16352;SDS011;8286;51.274;9.542;2023-02-28T12:32:06;2.83;;;2.40;;
16352;SDS011;8286;51.274;9.542;2023-02-28T12:34:38;3.10;;;2.67;;
16352;SDS011;8286;51.274;9.542;2023-02-28T12:37:06;3.60;;;2.43;;
16352;SDS011;8286;51.274;9.542;2023-02-28T12:39:36;3.97;;;2.40;;
16352;SDS011;8286;51.274;9.542;2023-02-28T12:42:07;2.57;;;2.30;;
16352;SDS011;8286;51.274;9.542;2023-02-28T12:44:40;2.53;;;2.33;;
16352;SDS011;8286;51.274;9.542;2023-02-28T12:47:12;2.87;;;2.63;;
16352;SDS011;8286;51.274;9.542;2023-02-28T12:49:41;3.23;;;2.50;;
16352;SDS011;8286;51.274;9.542;2023-02-28T12:52:12;2.77;;;2.50;;
16352;SDS011;8286;51.274;9.542;2023-02-28T12:54:44;2.80;;;2.60;;
16352;SDS011;8286;51.274;9.542;2023-02-28T12:57:15;3.17;;;2.80;;
16352;SDS011;8286;51.274;9.542;2023-02-28T12:59:48;3.03;;;2.50;;
16352;SDS011;8286;51.274;9.542;2023-02-28T13:02:21;3.67;;;2.50;;
16352;SDS011;8286;51.274;9.542;2023-02-28T13:05:16;2.73;;;2.10;;
16352;SDS011;8286;51.274;9.542;2023-02-28T13:10:38;3.13;;;2.43;;
16352;SDS011;8286;51.274;9.542;2023-02-28T13:13:06;2.97;;;2.77;;
16352;SDS011;8286;51.274;9.542;2023-02-28T13:15:34;3.67;;;2.60;;
16352;SDS011;8286;51.274;9.542;2023-02-28T13:18:19;3.37;;;2.50;;
16352;SDS011;8286;51.274;9.542;2023-02-28T13:20:54;2.93;;;2.63;;
16352;SDS011;8286;51.274;9.542;2023-02-28T13:23:37;3.43;;;2.73;;
16352;SDS011;8286;51.274;9.542;2023-02-28T13:26:06;3.17;;;2.90;;
16352;SDS011;8286;51.274;9.542;2023-02-28T13:35:13;3.00;;;2.67;;
16352;SDS011;8286;51.274;9.542;2023-02-28T13:40:50;4.83;;;2.90;;
16352;SDS011;8286;51.274;9.542;2023-02-28T13:43:17;4.80;;;2.50;;
16352;SDS011;8286;51.274;9.542;2023-02-28T13:48:38;6.67;;;3.33;;
16352;SDS011;8286;51.274;9.542;2023-02-28T13:53:59;3.20;;;2.90;;
16352;SDS011;8286;51.274;9.542;2023-02-28T13:56:33;3.23;;;2.73;;
16352;SDS011;8286;51.274;9.542;2023-02-28T13:59:06;3.43;;;2.83;;
16352;SDS011;8286;51.274;9.542;2023-02-28T14:01:48;3.13;;;2.83;;
16352;SDS011;8286;51.274;9.542;2023-02-28T14:04:37;3.70;;;3.00;;
16352;SDS011;8286;51.274;9.542;2023-02-28T14:07:16;3.03;;;2.70;;
16352;SDS011;8286;51.274;9.542;2023-02-28T14:09:45;3.43;;;2.93;;
16352;SDS011;8286;51.274;9.542;2023-02-28T14:15:26;3.40;;;2.77;;
16352;SDS011;8286;51.274;9.542;2023-02-28T14:17:56;3.47;;;3.10;;
16352;SDS011;8286;51.274;9.542;2023-02-28T14:20:26;3.83;;;2.80;;
16352;SDS011;8286;51.274;9.542;2023-02-28T14:22:56;5.57;;;3.43;;
16352;SDS011;8286;51.274;9.542;2023-02-28T14:25:30;3.80;;;3.10;;
16352;SDS011;8286;51.274;9.542;2023-02-28T14:28:03;2.53;;;2.33;;
16352;SDS011;8286;51.274;9.542;2023-02-28T14:30:40;3.53;;;2.87;;
16352;SDS011;8286;51.274;9.542;2023-02-28T14:36:14;3.40;;;3.03;;
16352;SDS011;8286;51.274;9.542;2023-02-28T14:38:45;3.73;;;3.30;;
16352;SDS011;8286;51.274;9.542;2023-02-28T14:41:18;4.60;;;2.83;;
16352;SDS011;8286;51.274;9.542;2023-02-28T14:43:49;3.33;;;2.83;;
16352;SDS011;8286;51.274;9.542;2023-02-28T14:46:21;5.23;;;3.23;;
16352;SDS011;8286;51.274;9.542;2023-02-28T14:48:49;5.43;;;3.30;;
16352;SDS011;8286;51.274;9.542;2023-02-28T14:51:21;5.33;;;3.23;;
16352;SDS011;8286;51.274;9.542;2023-02-28T14:53:50;4.60;;;2.53;;
16352;SDS011;8286;51.274;9.542;2023-02-28T14:56:22;7.33;;;3.30;;
16352;SDS011;8286;51.274;9.542;2023-02-28T14:58:50;3.93;;;3.10;;
16352;SDS011;8286;51.274;9.542;2023-02-28T15:01:19;4.53;;;3.67;;
16352;SDS011;8286;51.274;9.542;2023-02-28T15:03:47;4.47;;;3.30;;
16352;SDS011;8286;51.274;9.542;2023-02-28T15:06:14;4.47;;;4.07;;
16352;SDS011;8286;51.274;9.542;2023-02-28T15:08:44;4.93;;;2.83;;
16352;SDS011;8286;51.274;9.542;2023-02-28T15:11:13;6.70;;;3.57;;
16352;SDS011;8286;51.274;9.542;2023-02-28T15:13:41;4.23;;;2.90;;
16352;SDS011;8286;51.274;9.542;2023-02-28T15:16:11;4.87;;;3.57;;
16352;SDS011;8286;51.274;9.542;2023-02-28T15:18:45;5.77;;;3.77;;
16352;SDS011;8286;51.274;9.542;2023-02-28T15:21:13;3.83;;;3.30;;
16352;SDS011;8286;51.274;9.542;2023-02-28T15:23:42;4.90;;;3.30;;
16352;SDS011;8286;51.274;9.542;2023-02-28T15:26:12;4.97;;;3.27;;
16352;SDS011;8286;51.274;9.542;2023-02-28T15:28:40;4.50;;;3.50;;
16352;SDS011;8286;51.274;9.542;2023-02-28T15:31:17;7.33;;;3.93;;
16352;SDS011;8286;51.274;9.542;2023-02-28T15:33:51;5.07;;;3.57;;
16352;SDS011;8286;51.274;9.542;2023-02-28T15:36:18;4.80;;;3.60;;
16352;SDS011;8286;51.274;9.542;2023-02-28T15:38:47;4.10;;;3.20;;
16352;SDS011;8286;51.274;9.542;2023-02-28T15:41:24;3.43;;;3.13;;
16352;SDS011;8286;51.274;9.542;2023-02-28T15:46:45;7.23;;;4.00;;
16352;SDS011;8286;51.274;9.542;2023-02-28T15:49:20;6.23;;;3.70;;
16352;SDS011;8286;51.274;9.542;2023-02-28T15:51:48;3.83;;;3.53;;